sensor_id;sensor_type;location;lat;lon;timestamp;P1;durP1;ratioP1;P2;durP2;ratioP2
27145;SDS011;17980;51.744;7.190;2023-09-12T00:02:11;13.17;;;11.93;;
27145;SDS011;17980;51.744;7.190;2023-09-12T00:04:39;15.40;;;12.63;;
27145;SDS011;17980;51.744;7.190;2023-09-12T00:07:15;17.80;;;14.67;;
27145;SDS011;17980;51.744;7.190;2023-09-12T00:09:43;17.73;;;15.83;;
27145;SDS011;17980;51.744;7.190;2023-09-12T00:12:12;15.43;;;13.83;;
27145;SDS011;17980;51.744;7.190;2023-09-12T00:14:49;17.47;;;15.77;;
27145;SDS011;17980;51.744;7.190;2023-09-12T00:17:17;17.50;;;15.87;;
27145;SDS011;17980;51.744;7.190;2023-09-12T00:19:53;21.03;;;16.20;;
27145;SDS011;17980;51.744;7.190;2023-09-12T00:22:21;20.30;;;18.17;;
27145;SDS011;17980;51.744;7.190;2023-09-12T00:24:58;19.93;;;17.93;;
27145;SDS011;17980;51.744;7.190;2023-09-12T00:27:25;19.70;;;17.60;;
27145;SDS011;17980;51.744;7.190;2023-09-12T00:29:52;22.23;;;18.40;;
27145;SDS011;17980;51.744;7.190;2023-09-12T00:32:20;25.17;;;20.50;;
27145;SDS011;17980;51.744;7.190;2023-09-12T00:34:56;24.07;;;21.37;;
27145;SDS011;17980;51.744;7.190;2023-09-12T00:37:24;28.47;;;22.47;;
27145;SDS011;17980;51.744;7.190;2023-09-12T00:39:51;23.20;;;20.77;;
27145;SDS011;17980;51.744;7.190;2023-09-12T00:42:19;24.67;;;20.93;;
27145;SDS011;17980;51.744;7.190;2023-09-12T00:44:56;24.47;;;20.77;;
27145;SDS011;17980;51.744;7.190;2023-09-12T00:47:23;24.50;;;21.50;;
27145;SDS011;17980;51.744;7.190;2023-09-12T00:49:51;24.00;;;21.50;;
27145;SDS011;17980;51.744;7.190;2023-09-12T00:52:21;22.43;;;20.07;;
27145;SDS011;17980;51.744;7.190;2023-09-12T00:55:00;24.03;;;21.50;;
27145;SDS011;17980;51.744;7.190;2023-09-12T00:57:28;25.53;;;21.60;;
27145;SDS011;17980;51.744;7.190;2023-09-12T00:59:56;26.40;;;23.60;;
27145;SDS011;17980;51.744;7.190;2023-09-12T01:02:24;25.93;;;23.17;;
27145;SDS011;17980;51.744;7.190;2023-09-12T01:05:01;26.87;;;22.47;;
27145;SDS011;17980;51.744;7.190;2023-09-12T01:07:30;25.67;;;21.70;;
27145;SDS011;17980;51.744;7.190;2023-09-12T01:09:57;24.87;;;22.23;;
27145;SDS011;17980;51.744;7.190;2023-09-12T01:12:25;24.10;;;21.80;;
27145;SDS011;17980;51.744;7.190;2023-09-12T01:15:02;25.57;;;22.83;;
27145;SDS011;17980;51.744;7.190;2023-09-12T01:17:32;37.60;;;24.90;;
27145;SDS011;17980;51.744;7.190;2023-09-12T01:20:01;67.67;;;28.83;;
27145;SDS011;17980;51.744;7.190;2023-09-12T01:22:56;40.87;;;29.60;;
27145;SDS011;17980;51.744;7.190;2023-09-12T01:28:46;43.40;;;33.20;;
27145;SDS011;17980;51.744;7.190;2023-09-12T01:31:16;25.23;;;20.17;;
27145;SDS011;17980;51.744;7.190;2023-09-12T01:33:55;25.63;;;20.13;;
27145;SDS011;17980;51.744;7.190;2023-09-12T01:36:22;27.20;;;22.23;;
27145;SDS011;17980;51.744;7.190;2023-09-12T01:38:59;26.43;;;22.27;;
27145;SDS011;17980;51.744;7.190;2023-09-12T01:41:27;28.97;;;21.23;;
27145;SDS011;17980;51.744;7.190;2023-09-12T01:43:56;22.20;;;19.43;;
27145;SDS011;17980;51.744;7.190;2023-09-12T01:46:34;22.73;;;19.33;;
27145;SDS011;17980;51.744;7.190;2023-09-12T01:49:03;24.50;;;20.57;;
27145;SDS011;17980;51.744;7.190;2023-09-12T01:54:17;33.07;;;23.43;;
27145;SDS011;17980;51.744;7.190;2023-09-12T01:56:46;33.13;;;25.90;;
27145;SDS011;17980;51.744;7.190;2023-09-12T01:59:30;30.37;;;25.43;;
27145;SDS011;17980;51.744;7.190;2023-09-12T02:01:57;31.33;;;25.00;;
27145;SDS011;17980;51.744;7.190;2023-09-12T02:04:25;30.00;;;25.30;;
27145;SDS011;17980;51.744;7.190;2023-09-12T02:07:02;35.20;;;26.83;;
27145;SDS011;17980;51.744;7.190;2023-09-12T02:09:30;31.43;;;26.27;;
27145;SDS011;17980;51.744;7.190;2023-09-12T02:11:57;34.97;;;27.47;;
27145;SDS011;17980;51.744;7.190;2023-09-12T02:14:24;44.43;;;29.40;;
27145;SDS011;17980;51.744;7.190;2023-09-12T02:17:01;33.90;;;27.17;;
27145;SDS011;17980;51.744;7.190;2023-09-12T02:19:29;37.77;;;28.27;;
27145;SDS011;17980;51.744;7.190;2023-09-12T02:21:57;36.33;;;30.17;;
27145;SDS011;17980;51.744;7.190;2023-09-12T02:24:25;39.73;;;32.00;;
27145;SDS011;17980;51.744;7.190;2023-09-12T02:27:03;37.83;;;29.10;;
27145;SDS011;17980;51.744;7.190;2023-09-12T02:29:31;42.07;;;30.57;;
27145;SDS011;17980;51.744;7.190;2023-09-12T02:31:58;46.63;;;26.53;;
27145;SDS011;17980;51.744;7.190;2023-09-12T02:34:26;33.40;;;25.87;;
27145;SDS011;17980;51.744;7.190;2023-09-12T02:37:03;18.70;;;16.17;;
27145;SDS011;17980;51.744;7.190;2023-09-12T02:39:30;20.30;;;17.47;;
27145;SDS011;17980;51.744;7.190;2023-09-12T02:41:57;28.77;;;22.23;;
27145;SDS011;17980;51.744;7.190;2023-09-12T02:44:25;39.00;;;29.13;;
27145;SDS011;17980;51.744;7.190;2023-09-12T02:47:03;35.87;;;28.37;;
27145;SDS011;17980;51.744;7.190;2023-09-12T02:49:32;33.67;;;26.00;;
27145;SDS011;17980;51.744;7.190;2023-09-12T02:51:59;31.70;;;24.37;;
27145;SDS011;17980;51.744;7.190;2023-09-12T02:54:27;38.37;;;27.13;;
27145;SDS011;17980;51.744;7.190;2023-09-12T02:57:04;29.97;;;23.93;;
27145;SDS011;17980;51.744;7.190;2023-09-12T02:59:31;29.63;;;24.13;;
27145;SDS011;17980;51.744;7.190;2023-09-12T03:01:59;70.73;;;29.37;;
27145;SDS011;17980;51.744;7.190;2023-09-12T03:04:26;33.83;;;27.10;;
27145;SDS011;17980;51.744;7.190;2023-09-12T03:07:03;36.07;;;27.50;;
27145;SDS011;17980;51.744;7.190;2023-09-12T03:09:30;37.57;;;27.70;;
27145;SDS011;17980;51.744;7.190;2023-09-12T03:11:58;34.47;;;26.63;;
27145;SDS011;17980;51.744;7.190;2023-09-12T03:14:35;32.30;;;25.97;;
27145;SDS011;17980;51.744;7.190;2023-09-12T03:17:02;30.20;;;24.67;;
27145;SDS011;17980;51.744;7.190;2023-09-12T03:19:39;37.20;;;25.03;;
27145;SDS011;17980;51.744;7.190;2023-09-12T03:22:07;37.63;;;25.63;;
27145;SDS011;17980;51.744;7.190;2023-09-12T03:24:34;32.10;;;25.33;;
27145;SDS011;17980;51.744;7.190;2023-09-12T03:27:11;22.77;;;18.80;;
27145;SDS011;17980;51.744;7.190;2023-09-12T03:29:38;17.60;;;14.20;;
27145;SDS011;17980;51.744;7.190;2023-09-12T03:32:05;19.57;;;16.00;;
27145;SDS011;17980;51.744;7.190;2023-09-12T03:34:42;20.57;;;16.50;;
27145;SDS011;17980;51.744;7.190;2023-09-12T03:37:10;16.57;;;14.87;;
27145;SDS011;17980;51.744;7.190;2023-09-12T03:39:37;19.10;;;16.43;;
27145;SDS011;17980;51.744;7.190;2023-09-12T03:42:05;52.87;;;47.60;;
27145;SDS011;17980;51.744;7.190;2023-09-12T03:44:32;120.67;;;109.40;;
27145;SDS011;17980;51.744;7.190;2023-09-12T03:47:09;26.00;;;23.47;;
27145;SDS011;17980;51.744;7.190;2023-09-12T03:49:36;27.87;;;24.80;;
27145;SDS011;17980;51.744;7.190;2023-09-12T03:52:04;207.17;;;185.67;;
27145;SDS011;17980;51.744;7.190;2023-09-12T03:54:32;79.90;;;71.63;;
27145;SDS011;17980;51.744;7.190;2023-09-12T03:57:09;32.83;;;29.47;;
27145;SDS011;17980;51.744;7.190;2023-09-12T03:59:37;23.43;;;21.13;;
27145;SDS011;17980;51.744;7.190;2023-09-12T04:02:04;22.80;;;19.00;;
27145;SDS011;17980;51.744;7.190;2023-09-12T04:04:32;22.83;;;18.70;;
27145;SDS011;17980;51.744;7.190;2023-09-12T04:07:09;21.87;;;18.90;;
27145;SDS011;17980;51.744;7.190;2023-09-12T04:09:36;20.10;;;18.10;;
27145;SDS011;17980;51.744;7.190;2023-09-12T04:12:04;23.87;;;17.60;;
27145;SDS011;17980;51.744;7.190;2023-09-12T04:14:34;20.63;;;17.67;;
27145;SDS011;17980;51.744;7.190;2023-09-12T04:17:11;19.13;;;17.23;;
27145;SDS011;17980;51.744;7.190;2023-09-12T04:19:39;20.47;;;17.83;;
27145;SDS011;17980;51.744;7.190;2023-09-12T04:22:06;20.97;;;17.93;;
27145;SDS011;17980;51.744;7.190;2023-09-12T04:24:34;19.87;;;17.83;;
27145;SDS011;17980;51.744;7.190;2023-09-12T04:27:11;21.53;;;17.73;;
27145;SDS011;17980;51.744;7.190;2023-09-12T04:32:14;20.43;;;17.40;;
27145;SDS011;17980;51.744;7.190;2023-09-12T04:34:44;21.07;;;18.90;;
27145;SDS011;17980;51.744;7.190;2023-09-12T04:37:21;22.77;;;19.17;;
27145;SDS011;17980;51.744;7.190;2023-09-12T04:39:48;23.20;;;20.80;;
27145;SDS011;17980;51.744;7.190;2023-09-12T04:42:15;23.63;;;21.00;;
27145;SDS011;17980;51.744;7.190;2023-09-12T04:44:58;24.83;;;22.00;;
27145;SDS011;17980;51.744;7.190;2023-09-12T04:47:26;28.23;;;25.23;;
27145;SDS011;17980;51.744;7.190;2023-09-12T04:50:03;32.97;;;27.00;;
27145;SDS011;17980;51.744;7.190;2023-09-12T04:52:31;43.07;;;29.40;;
27145;SDS011;17980;51.744;7.190;2023-09-12T04:55:08;38.70;;;30.97;;
27145;SDS011;17980;51.744;7.190;2023-09-12T04:57:36;35.47;;;28.77;;
27145;SDS011;17980;51.744;7.190;2023-09-12T05:00:04;37.37;;;30.27;;
27145;SDS011;17980;51.744;7.190;2023-09-12T05:02:32;39.73;;;29.33;;
27145;SDS011;17980;51.744;7.190;2023-09-12T05:05:09;43.40;;;30.80;;
27145;SDS011;17980;51.744;7.190;2023-09-12T05:07:37;36.80;;;29.87;;
27145;SDS011;17980;51.744;7.190;2023-09-12T05:10:05;33.77;;;28.33;;
27145;SDS011;17980;51.744;7.190;2023-09-12T05:12:33;37.57;;;30.93;;
27145;SDS011;17980;51.744;7.190;2023-09-12T05:15:10;37.23;;;31.37;;
27145;SDS011;17980;51.744;7.190;2023-09-12T05:17:37;37.90;;;28.83;;
27145;SDS011;17980;51.744;7.190;2023-09-12T05:20:14;43.23;;;32.07;;
27145;SDS011;17980;51.744;7.190;2023-09-12T05:22:42;37.77;;;31.03;;
27145;SDS011;17980;51.744;7.190;2023-09-12T05:25:21;36.97;;;28.47;;
27145;SDS011;17980;51.744;7.190;2023-09-12T05:27:48;39.60;;;30.87;;
27145;SDS011;17980;51.744;7.190;2023-09-12T05:30:15;42.00;;;30.27;;
27145;SDS011;17980;51.744;7.190;2023-09-12T05:32:43;40.07;;;33.30;;
27145;SDS011;17980;51.744;7.190;2023-09-12T05:35:20;34.60;;;29.27;;
27145;SDS011;17980;51.744;7.190;2023-09-12T05:37:47;33.90;;;25.83;;
27145;SDS011;17980;51.744;7.190;2023-09-12T05:40:15;34.40;;;25.97;;
27145;SDS011;17980;51.744;7.190;2023-09-12T05:42:42;29.87;;;24.83;;
27145;SDS011;17980;51.744;7.190;2023-09-12T05:45:19;34.80;;;26.70;;
27145;SDS011;17980;51.744;7.190;2023-09-12T05:47:47;38.47;;;31.47;;
27145;SDS011;17980;51.744;7.190;2023-09-12T05:50:16;33.90;;;28.83;;
27145;SDS011;17980;51.744;7.190;2023-09-12T05:52:53;32.40;;;26.50;;
27145;SDS011;17980;51.744;7.190;2023-09-12T05:55:20;33.97;;;24.67;;
27145;SDS011;17980;51.744;7.190;2023-09-12T05:57:57;33.47;;;26.80;;
27145;SDS011;17980;51.744;7.190;2023-09-12T06:00:24;34.33;;;26.87;;
27145;SDS011;17980;51.744;7.190;2023-09-12T06:02:52;35.93;;;26.83;;
27145;SDS011;17980;51.744;7.190;2023-09-12T06:05:28;37.27;;;27.40;;
27145;SDS011;17980;51.744;7.190;2023-09-12T06:07:56;33.70;;;28.33;;
27145;SDS011;17980;51.744;7.190;2023-09-12T06:10:33;35.60;;;30.17;;
27145;SDS011;17980;51.744;7.190;2023-09-12T06:13:00;43.80;;;33.67;;
27145;SDS011;17980;51.744;7.190;2023-09-12T06:15:37;38.50;;;30.53;;
27145;SDS011;17980;51.744;7.190;2023-09-12T06:18:07;40.90;;;33.47;;
27145;SDS011;17980;51.744;7.190;2023-09-12T06:20:34;38.70;;;31.47;;
27145;SDS011;17980;51.744;7.190;2023-09-12T06:23:02;37.30;;;29.17;;
27145;SDS011;17980;51.744;7.190;2023-09-12T06:25:39;33.33;;;28.60;;
27145;SDS011;17980;51.744;7.190;2023-09-12T06:28:08;34.97;;;28.50;;
27145;SDS011;17980;51.744;7.190;2023-09-12T06:30:36;44.93;;;37.40;;
27145;SDS011;17980;51.744;7.190;2023-09-12T06:33:04;40.90;;;35.13;;
27145;SDS011;17980;51.744;7.190;2023-09-12T06:35:48;37.23;;;29.97;;
27145;SDS011;17980;51.744;7.190;2023-09-12T06:38:16;39.70;;;29.47;;
27145;SDS011;17980;51.744;7.190;2023-09-12T06:40:52;30.67;;;27.13;;
27145;SDS011;17980;51.744;7.190;2023-09-12T06:43:21;36.37;;;28.97;;
27145;SDS011;17980;51.744;7.190;2023-09-12T06:45:58;41.33;;;29.07;;
27145;SDS011;17980;51.744;7.190;2023-09-12T06:48:25;32.13;;;28.30;;
27145;SDS011;17980;51.744;7.190;2023-09-12T06:50:53;34.00;;;28.63;;
27145;SDS011;17980;51.744;7.190;2023-09-12T06:53:21;37.47;;;28.87;;
27145;SDS011;17980;51.744;7.190;2023-09-12T06:55:58;36.20;;;30.37;;
27145;SDS011;17980;51.744;7.190;2023-09-12T06:58:25;34.27;;;28.23;;
27145;SDS011;17980;51.744;7.190;2023-09-12T07:00:52;37.47;;;28.70;;
27145;SDS011;17980;51.744;7.190;2023-09-12T07:03:29;34.73;;;29.67;;
27145;SDS011;17980;51.744;7.190;2023-09-12T07:05:57;42.63;;;30.70;;
27145;SDS011;17980;51.744;7.190;2023-09-12T07:08:34;35.13;;;29.30;;
27145;SDS011;17980;51.744;7.190;2023-09-12T07:11:03;40.27;;;30.67;;
27145;SDS011;17980;51.744;7.190;2023-09-12T07:13:32;40.00;;;30.73;;
27145;SDS011;17980;51.744;7.190;2023-09-12T07:16:09;40.27;;;32.00;;
27145;SDS011;17980;51.744;7.190;2023-09-12T07:18:36;41.87;;;31.57;;
27145;SDS011;17980;51.744;7.190;2023-09-12T07:21:04;40.20;;;31.93;;
27145;SDS011;17980;51.744;7.190;2023-09-12T07:23:32;40.27;;;32.80;;
27145;SDS011;17980;51.744;7.190;2023-09-12T07:26:12;46.93;;;33.33;;
27145;SDS011;17980;51.744;7.190;2023-09-12T07:28:49;40.23;;;32.10;;
27145;SDS011;17980;51.744;7.190;2023-09-12T07:31:19;47.27;;;35.17;;
27145;SDS011;17980;51.744;7.190;2023-09-12T07:33:47;45.67;;;35.07;;
27145;SDS011;17980;51.744;7.190;2023-09-12T07:36:24;45.30;;;33.57;;
27145;SDS011;17980;51.744;7.190;2023-09-12T07:38:51;46.90;;;34.57;;
27145;SDS011;17980;51.744;7.190;2023-09-12T07:41:19;40.40;;;32.37;;
27145;SDS011;17980;51.744;7.190;2023-09-12T07:43:55;39.53;;;30.67;;
27145;SDS011;17980;51.744;7.190;2023-09-12T07:46:23;39.50;;;32.77;;
27145;SDS011;17980;51.744;7.190;2023-09-12T07:49:00;39.90;;;31.03;;
27145;SDS011;17980;51.744;7.190;2023-09-12T07:54:03;37.03;;;31.63;;
27145;SDS011;17980;51.744;7.190;2023-09-12T07:56:31;40.70;;;33.27;;
27145;SDS011;17980;51.744;7.190;2023-09-12T07:59:08;46.23;;;32.93;;
27145;SDS011;17980;51.744;7.190;2023-09-12T08:04:13;41.70;;;32.73;;
27145;SDS011;17980;51.744;7.190;2023-09-12T08:06:41;44.53;;;33.13;;
27145;SDS011;17980;51.744;7.190;2023-09-12T08:09:20;58.30;;;34.13;;
27145;SDS011;17980;51.744;7.190;2023-09-12T08:11:48;43.60;;;32.57;;
27145;SDS011;17980;51.744;7.190;2023-09-12T08:14:15;39.60;;;31.20;;
27145;SDS011;17980;51.744;7.190;2023-09-12T08:16:52;42.47;;;32.50;;
27145;SDS011;17980;51.744;7.190;2023-09-12T08:19:19;38.13;;;30.27;;
27145;SDS011;17980;51.744;7.190;2023-09-12T08:21:47;40.27;;;32.77;;
27145;SDS011;17980;51.744;7.190;2023-09-12T08:24:15;38.73;;;32.27;;
27145;SDS011;17980;51.744;7.190;2023-09-12T08:26:52;40.40;;;31.17;;
27145;SDS011;17980;51.744;7.190;2023-09-12T08:29:20;34.90;;;29.40;;
27145;SDS011;17980;51.744;7.190;2023-09-12T08:34:23;36.37;;;28.00;;
27145;SDS011;17980;51.744;7.190;2023-09-12T08:36:51;33.27;;;28.03;;
27145;SDS011;17980;51.744;7.190;2023-09-12T08:39:27;29.63;;;26.23;;
27145;SDS011;17980;51.744;7.190;2023-09-12T08:41:57;29.20;;;26.00;;
27145;SDS011;17980;51.744;7.190;2023-09-12T08:44:25;28.57;;;25.47;;
27145;SDS011;17980;51.744;7.190;2023-09-12T08:47:02;25.70;;;23.00;;
27145;SDS011;17980;51.744;7.190;2023-09-12T08:49:30;25.57;;;21.93;;
27145;SDS011;17980;51.744;7.190;2023-09-12T08:51:59;25.37;;;22.50;;
27145;SDS011;17980;51.744;7.190;2023-09-12T08:54:27;28.03;;;24.90;;
27145;SDS011;17980;51.744;7.190;2023-09-12T08:57:04;27.60;;;23.43;;
27145;SDS011;17980;51.744;7.190;2023-09-12T08:59:33;28.20;;;23.17;;
27145;SDS011;17980;51.744;7.190;2023-09-12T09:02:00;26.73;;;23.93;;
27145;SDS011;17980;51.744;7.190;2023-09-12T09:04:31;24.00;;;21.67;;
27145;SDS011;17980;51.744;7.190;2023-09-12T09:07:09;23.53;;;20.97;;
27145;SDS011;17980;51.744;7.190;2023-09-12T09:09:39;24.50;;;21.97;;
27145;SDS011;17980;51.744;7.190;2023-09-12T09:12:07;23.97;;;21.47;;
27145;SDS011;17980;51.744;7.190;2023-09-12T09:14:36;22.43;;;20.23;;
27145;SDS011;17980;51.744;7.190;2023-09-12T09:17:13;24.30;;;21.30;;
27145;SDS011;17980;51.744;7.190;2023-09-12T09:19:41;21.20;;;19.20;;
27145;SDS011;17980;51.744;7.190;2023-09-12T09:22:10;22.13;;;19.83;;
27145;SDS011;17980;51.744;7.190;2023-09-12T09:24:47;24.50;;;21.87;;
27145;SDS011;17980;51.744;7.190;2023-09-12T09:29:59;21.77;;;19.33;;
27145;SDS011;17980;51.744;7.190;2023-09-12T09:32:26;23.17;;;20.77;;
27145;SDS011;17980;51.744;7.190;2023-09-12T09:35:09;20.90;;;18.70;;
27145;SDS011;17980;51.744;7.190;2023-09-12T09:37:37;19.57;;;17.77;;
27145;SDS011;17980;51.744;7.190;2023-09-12T09:40:05;18.67;;;16.73;;
27145;SDS011;17980;51.744;7.190;2023-09-12T09:42:35;16.17;;;14.57;;
27145;SDS011;17980;51.744;7.190;2023-09-12T09:45:12;17.43;;;15.13;;
27145;SDS011;17980;51.744;7.190;2023-09-12T09:47:39;17.27;;;14.07;;
27145;SDS011;17980;51.744;7.190;2023-09-12T09:50:10;12.70;;;9.70;;
27145;SDS011;17980;51.744;7.190;2023-09-12T09:52:40;8.67;;;7.97;;
27145;SDS011;17980;51.744;7.190;2023-09-12T09:55:19;8.43;;;7.73;;
27145;SDS011;17980;51.744;7.190;2023-09-12T09:57:47;6.37;;;5.73;;
27145;SDS011;17980;51.744;7.190;2023-09-12T10:00:24;8.53;;;7.73;;
27145;SDS011;17980;51.744;7.190;2023-09-12T10:02:53;7.97;;;7.17;;
27145;SDS011;17980;51.744;7.190;2023-09-12T10:05:32;7.03;;;5.23;;
27145;SDS011;17980;51.744;7.190;2023-09-12T10:07:59;8.87;;;7.97;;
27145;SDS011;17980;51.744;7.190;2023-09-12T10:10:29;6.00;;;5.30;;
27145;SDS011;17980;51.744;7.190;2023-09-12T10:13:00;6.27;;;5.77;;
27145;SDS011;17980;51.744;7.190;2023-09-12T10:15:38;11.23;;;6.97;;
27145;SDS011;17980;51.744;7.190;2023-09-12T10:18:09;6.27;;;5.67;;
27145;SDS011;17980;51.744;7.190;2023-09-12T10:20:41;9.77;;;7.10;;
27145;SDS011;17980;51.744;7.190;2023-09-12T10:23:19;6.80;;;5.70;;
27145;SDS011;17980;51.744;7.190;2023-09-12T10:25:49;7.03;;;6.40;;
27145;SDS011;17980;51.744;7.190;2023-09-12T10:28:25;7.53;;;6.90;;
27145;SDS011;17980;51.744;7.190;2023-09-12T10:30:53;7.53;;;6.70;;
27145;SDS011;17980;51.744;7.190;2023-09-12T10:33:22;6.60;;;6.10;;
27145;SDS011;17980;51.744;7.190;2023-09-12T10:35:59;6.83;;;6.17;;
27145;SDS011;17980;51.744;7.190;2023-09-12T10:38:29;9.80;;;6.83;;
27145;SDS011;17980;51.744;7.190;2023-09-12T10:40:58;6.67;;;5.90;;
27145;SDS011;17980;51.744;7.190;2023-09-12T10:43:29;7.23;;;6.57;;
27145;SDS011;17980;51.744;7.190;2023-09-12T10:46:06;7.93;;;7.23;;
27145;SDS011;17980;51.744;7.190;2023-09-12T10:48:35;7.57;;;6.67;;
27145;SDS011;17980;51.744;7.190;2023-09-12T10:51:02;7.30;;;6.43;;
27145;SDS011;17980;51.744;7.190;2023-09-12T10:53:31;7.50;;;6.90;;
27145;SDS011;17980;51.744;7.190;2023-09-12T10:56:25;7.70;;;6.90;;
27145;SDS011;17980;51.744;7.190;2023-09-12T10:59:11;7.47;;;6.67;;
27145;SDS011;17980;51.744;7.190;2023-09-12T11:01:40;6.07;;;5.03;;
27145;SDS011;17980;51.744;7.190;2023-09-12T11:07:31;6.33;;;5.27;;
27145;SDS011;17980;51.744;7.190;2023-09-12T11:12:46;7.03;;;6.30;;
27145;SDS011;17980;51.744;7.190;2023-09-12T11:15:23;6.00;;;5.50;;
27145;SDS011;17980;51.744;7.190;2023-09-12T11:17:59;6.23;;;5.53;;
27145;SDS011;17980;51.744;7.190;2023-09-12T11:23:17;6.77;;;6.10;;
27145;SDS011;17980;51.744;7.190;2023-09-12T11:26:03;5.93;;;5.43;;
27145;SDS011;17980;51.744;7.190;2023-09-12T11:28:32;5.30;;;4.90;;
27145;SDS011;17980;51.744;7.190;2023-09-12T11:31:00;6.60;;;6.10;;
27145;SDS011;17980;51.744;7.190;2023-09-12T11:33:27;6.90;;;6.27;;
27145;SDS011;17980;51.744;7.190;2023-09-12T11:36:13;7.20;;;6.57;;
27145;SDS011;17980;51.744;7.190;2023-09-12T11:38:40;6.70;;;6.10;;
27145;SDS011;17980;51.744;7.190;2023-09-12T11:41:08;6.33;;;5.43;;
27145;SDS011;17980;51.744;7.190;2023-09-12T11:43:35;5.60;;;5.20;;
27145;SDS011;17980;51.744;7.190;2023-09-12T11:46:14;6.30;;;5.80;;
27145;SDS011;17980;51.744;7.190;2023-09-12T11:48:43;5.77;;;5.37;;
27145;SDS011;17980;51.744;7.190;2023-09-12T11:51:11;7.20;;;6.50;;
27145;SDS011;17980;51.744;7.190;2023-09-12T11:53:40;7.77;;;6.27;;
27145;SDS011;17980;51.744;7.190;2023-09-12T11:56:17;7.07;;;6.33;;
27145;SDS011;17980;51.744;7.190;2023-09-12T11:58:45;7.73;;;6.07;;
27145;SDS011;17980;51.744;7.190;2023-09-12T12:01:12;6.27;;;5.77;;
27145;SDS011;17980;51.744;7.190;2023-09-12T12:03:40;7.67;;;6.10;;
27145;SDS011;17980;51.744;7.190;2023-09-12T12:06:17;6.53;;;5.93;;
27145;SDS011;17980;51.744;7.190;2023-09-12T12:08:48;6.30;;;5.73;;
27145;SDS011;17980;51.744;7.190;2023-09-12T12:11:18;7.00;;;6.37;;
27145;SDS011;17980;51.744;7.190;2023-09-12T12:16:21;6.70;;;6.10;;
27145;SDS011;17980;51.744;7.190;2023-09-12T12:18:51;9.30;;;8.40;;
27145;SDS011;17980;51.744;7.190;2023-09-12T12:21:20;7.70;;;7.03;;
27145;SDS011;17980;51.744;7.190;2023-09-12T12:23:57;8.47;;;6.50;;
27145;SDS011;17980;51.744;7.190;2023-09-12T12:26:34;8.90;;;8.10;;
27145;SDS011;17980;51.744;7.190;2023-09-12T12:29:02;9.70;;;8.60;;
27145;SDS011;17980;51.744;7.190;2023-09-12T12:31:30;9.17;;;8.30;;
27145;SDS011;17980;51.744;7.190;2023-09-12T12:33:58;9.67;;;8.67;;
27145;SDS011;17980;51.744;7.190;2023-09-12T12:36:41;9.97;;;8.10;;
27145;SDS011;17980;51.744;7.190;2023-09-12T12:39:11;8.37;;;7.57;;
27145;SDS011;17980;51.744;7.190;2023-09-12T12:41:40;8.87;;;8.07;;
27145;SDS011;17980;51.744;7.190;2023-09-12T12:44:08;10.30;;;8.57;;
27145;SDS011;17980;51.744;7.190;2023-09-12T12:46:48;8.37;;;7.57;;
27145;SDS011;17980;51.744;7.190;2023-09-12T12:49:16;8.20;;;7.50;;
27145;SDS011;17980;51.744;7.190;2023-09-12T12:51:44;9.47;;;8.53;;
27145;SDS011;17980;51.744;7.190;2023-09-12T12:56:48;11.50;;;7.80;;
27145;SDS011;17980;51.744;7.190;2023-09-12T13:01:57;9.13;;;8.33;;
27145;SDS011;17980;51.744;7.190;2023-09-12T13:04:37;7.57;;;6.97;;
27145;SDS011;17980;51.744;7.190;2023-09-12T13:07:06;8.73;;;7.90;;
27145;SDS011;17980;51.744;7.190;2023-09-12T13:09:46;8.60;;;7.80;;
27145;SDS011;17980;51.744;7.190;2023-09-12T13:12:14;9.50;;;8.17;;
27145;SDS011;17980;51.744;7.190;2023-09-12T13:14:43;10.83;;;6.87;;
27145;SDS011;17980;51.744;7.190;2023-09-12T13:17:20;9.67;;;8.43;;
27145;SDS011;17980;51.744;7.190;2023-09-12T13:19:47;10.60;;;8.83;;
27145;SDS011;17980;51.744;7.190;2023-09-12T13:22:14;9.40;;;8.40;;
27145;SDS011;17980;51.744;7.190;2023-09-12T13:24:42;8.23;;;7.43;;
27145;SDS011;17980;51.744;7.190;2023-09-12T13:27:19;6.87;;;6.23;;
27145;SDS011;17980;51.744;7.190;2023-09-12T13:29:46;7.90;;;7.07;;
27145;SDS011;17980;51.744;7.190;2023-09-12T13:32:14;7.63;;;7.07;;
27145;SDS011;17980;51.744;7.190;2023-09-12T13:34:43;7.10;;;6.40;;
27145;SDS011;17980;51.744;7.190;2023-09-12T13:37:26;7.10;;;6.50;;
27145;SDS011;17980;51.744;7.190;2023-09-12T13:39:55;7.40;;;6.80;;
27145;SDS011;17980;51.744;7.190;2023-09-12T13:42:23;8.27;;;7.43;;
27145;SDS011;17980;51.744;7.190;2023-09-12T13:45:00;7.53;;;6.93;;
27145;SDS011;17980;51.744;7.190;2023-09-12T13:50:10;8.23;;;7.53;;
27145;SDS011;17980;51.744;7.190;2023-09-12T13:52:41;10.63;;;8.40;;
27145;SDS011;17980;51.744;7.190;2023-09-12T13:55:18;10.67;;;7.53;;
27145;SDS011;17980;51.744;7.190;2023-09-12T13:57:46;7.20;;;6.60;;
27145;SDS011;17980;51.744;7.190;2023-09-12T14:00:13;6.60;;;6.00;;
27145;SDS011;17980;51.744;7.190;2023-09-12T14:02:41;6.57;;;6.00;;
27145;SDS011;17980;51.744;7.190;2023-09-12T14:05:18;6.60;;;5.67;;
27145;SDS011;17980;51.744;7.190;2023-09-12T14:07:46;7.80;;;7.00;;
27145;SDS011;17980;51.744;7.190;2023-09-12T14:10:13;6.20;;;5.60;;
27145;SDS011;17980;51.744;7.190;2023-09-12T14:12:41;6.97;;;5.63;;
27145;SDS011;17980;51.744;7.190;2023-09-12T14:15:18;6.50;;;5.90;;
27145;SDS011;17980;51.744;7.190;2023-09-12T14:17:45;6.27;;;5.70;;
27145;SDS011;17980;51.744;7.190;2023-09-12T14:20:13;6.20;;;5.60;;
27145;SDS011;17980;51.744;7.190;2023-09-12T14:22:41;6.37;;;5.77;;
27145;SDS011;17980;51.744;7.190;2023-09-12T14:25:18;7.23;;;4.27;;
27145;SDS011;17980;51.744;7.190;2023-09-12T14:27:46;5.10;;;4.30;;
27145;SDS011;17980;51.744;7.190;2023-09-12T14:30:13;5.07;;;4.60;;
27145;SDS011;17980;51.744;7.190;2023-09-12T14:32:41;7.00;;;6.37;;
27145;SDS011;17980;51.744;7.190;2023-09-12T14:35:18;4.53;;;4.03;;
27145;SDS011;17980;51.744;7.190;2023-09-12T14:37:45;4.30;;;3.90;;
27145;SDS011;17980;51.744;7.190;2023-09-12T14:40:15;3.97;;;3.67;;
27145;SDS011;17980;51.744;7.190;2023-09-12T14:42:43;4.43;;;4.03;;
27145;SDS011;17980;51.744;7.190;2023-09-12T14:45:19;4.03;;;3.67;;
27145;SDS011;17980;51.744;7.190;2023-09-12T14:47:47;5.10;;;3.77;;
27145;SDS011;17980;51.744;7.190;2023-09-12T14:50:24;4.10;;;3.23;;
27145;SDS011;17980;51.744;7.190;2023-09-12T14:52:54;4.73;;;3.00;;
27145;SDS011;17980;51.744;7.190;2023-09-12T14:55:31;4.33;;;3.93;;
27145;SDS011;17980;51.744;7.190;2023-09-12T14:57:58;8.30;;;4.40;;
27145;SDS011;17980;51.744;7.190;2023-09-12T15:00:25;4.80;;;4.30;;
27145;SDS011;17980;51.744;7.190;2023-09-12T15:02:54;4.30;;;3.60;;
27145;SDS011;17980;51.744;7.190;2023-09-12T15:05:31;3.87;;;3.47;;
27145;SDS011;17980;51.744;7.190;2023-09-12T15:07:58;3.53;;;3.33;;
27145;SDS011;17980;51.744;7.190;2023-09-12T15:10:25;3.70;;;3.40;;
27145;SDS011;17980;51.744;7.190;2023-09-12T15:12:53;3.50;;;3.20;;
27145;SDS011;17980;51.744;7.190;2023-09-12T15:15:34;3.83;;;3.40;;
27145;SDS011;17980;51.744;7.190;2023-09-12T15:18:02;5.43;;;3.40;;
27145;SDS011;17980;51.744;7.190;2023-09-12T15:20:30;3.97;;;3.60;;
27145;SDS011;17980;51.744;7.190;2023-09-12T15:22:58;5.43;;;4.07;;
27145;SDS011;17980;51.744;7.190;2023-09-12T15:25:35;4.27;;;3.37;;
27145;SDS011;17980;51.744;7.190;2023-09-12T15:28:03;3.93;;;3.63;;
27145;SDS011;17980;51.744;7.190;2023-09-12T15:30:46;10.27;;;3.80;;
27145;SDS011;17980;51.744;7.190;2023-09-12T15:33:13;3.67;;;3.37;;